Time;durP1;ratioP1;P1;durP2;ratioP2;P2;SDS_P1;SDS_P2;PMS_P1;PMS_P2;Temp;Humidity;BMP_temperature;BMP_pressure;BME280_temperature;BME280_humidity;BME280_pressure;Samples;Min_cycle;Max_cycle;Signal;HPM_P1;HPM_P2
2022/01/25 00:09:33;;;;;;;77.70;33.72;;;;;;;-0.86;74.08;100025.97;5110741;28;20104;-72
2022/01/25 00:33:22;;;;;;;76.80;33.38;;;;;;;-0.79;73.81;100016.13;5108890;28;20028;-71
2022/01/25 00:35:48;;;;;;;78.63;33.88;;;;;;;-0.81;73.97;100012.78;5110263;28;20027;-71
2022/01/25 00:38:13;;;;;;;78.90;34.30;;;;;;;-0.78;74.13;100023.19;5091384;28;20471;-72
2022/01/25 00:40:39;;;;;;;79.80;31.60;;;;;;;-0.81;74.00;100012.78;5109984;28;20102;-72
2022/01/25 00:43:04;;;;;;;71.93;32.65;;;;;;;-0.82;74.25;100005.72;5110117;28;20044;-72
2022/01/25 00:45:30;;;;;;;76.40;33.20;;;;;;;-0.82;74.30;100003.03;5110567;28;20027;-72
2022/01/25 00:47:56;;;;;;;79.00;32.60;;;;;;;-0.80;74.41;99996.41;5091255;28;20023;-71
2022/01/25 00:50:22;;;;;;;74.05;32.72;;;;;;;-0.77;74.07;100000.63;5109968;28;20371;-71
2022/01/25 00:55:14;;;;;;;79.95;32.90;;;;;;;-0.72;73.98;100005.44;5110494;28;20023;-72
2022/01/25 00:57:40;;;;;;;80.68;33.00;;;;;;;-0.73;74.37;100003.78;5109914;28;20036;-71
2022/01/25 01:00:08;;;;;;;82.55;34.60;;;;;;;-0.75;74.32;99998.59;5110134;28;20486;-72
2022/01/25 01:02:33;;;;;;;72.32;31.25;;;;;;;-0.78;74.36;100002.47;5108616;28;20675;-71
2022/01/25 01:04:59;;;;;;;74.03;33.95;;;;;;;-0.78;74.44;99997.06;5109252;28;20034;-72
2022/01/25 01:07:25;;;;;;;71.00;31.55;;;;;;;-0.74;74.34;100002.94;5109320;28;20029;-72
2022/01/25 01:09:52;;;;;;;77.82;32.47;;;;;;;-0.74;74.33;99997.56;5108991;28;20546;-72
2022/01/25 01:13:26;;;;;;;73.18;32.17;;;;;;;-0.73;74.21;99988.47;5109400;28;20033;-72
2022/01/25 01:15:31;;;;;;;75.75;34.22;;;;;;;-0.71;74.35;99985.56;5100064;28;20088;-71
2022/01/25 01:47:36;;;;;;;70.38;31.83;;;;;;;-0.57;74.34;99965.03;5108471;28;20431;-72
2022/01/25 01:50:09;;;;;;;71.32;30.55;;;;;;;-0.58;74.06;99964.22;5109172;28;20031;-72
2022/01/25 01:52:34;;;;;;;72.45;31.10;;;;;;;-0.61;74.32;99968.09;5090239;28;20024;-72
2022/01/25 01:55:00;;;;;;;64.85;29.30;;;;;;;-0.63;73.83;99958.53;5110380;27;20034;-72
2022/01/25 01:57:25;;;;;;;66.90;29.63;;;;;;;-0.64;74.38;99957.72;5108954;28;20062;-71
2022/01/25 01:59:53;;;;;;;63.95;29.60;;;;;;;-0.66;74.51;99959.75;5108925;28;20027;-71
2022/01/25 02:02:18;;;;;;;59.58;27.30;;;;;;;-0.70;74.37;99953.06;5107016;28;20020;-70
2022/01/25 02:04:44;;;;;;;57.70;26.35;;;;;;;-0.71;74.22;99951.38;5109080;28;20019;-70
2022/01/25 02:07:09;;;;;;;65.97;29.58;;;;;;;-0.71;74.77;99940.63;5109162;28;20118;-70
2022/01/25 02:09:35;;;;;;;52.17;25.08;;;;;;;-0.71;74.77;99943.31;5109510;28;20031;-70
2022/01/25 02:12:00;;;;;;;57.65;26.80;;;;;;;-0.72;74.93;99938.09;5108679;28;20051;-70
2022/01/25 02:14:25;;;;;;;60.95;27.35;;;;;;;-0.75;74.78;99940.13;5108730;28;20027;-70
2022/01/25 02:22:29;;;;;;;58.53;24.70;;;;;;;-0.76;74.59;99932.25;5109010;28;20056;-70
2022/01/25 02:24:55;;;;;;;57.90;25.40;;;;;;;-0.78;74.42;99926.22;5107067;28;20023;-70
2022/01/25 02:27:20;;;;;;;57.20;25.73;;;;;;;-0.79;74.49;99928.03;5106751;28;20476;-70
2022/01/25 02:29:46;;;;;;;58.80;25.25;;;;;;;-0.80;74.89;99926.38;5108359;28;20042;-70
2022/01/25 02:32:13;;;;;;;56.75;25.08;;;;;;;-0.81;74.75;99924.69;5108369;28;20088;-70
2022/01/25 02:34:39;;;;;;;57.78;25.60;;;;;;;-0.81;74.78;99918.50;5106591;28;20421;-70
2022/01/25 02:37:14;;;;;;;58.42;25.23;;;;;;;-0.82;74.76;99923.06;5089127;28;20035;-70
2022/01/25 02:39:44;;;;;;;56.20;23.65;;;;;;;-0.84;75.10;99918.84;5108359;28;20102;-70
2022/01/25 02:42:15;;;;;;;61.42;26.23;;;;;;;-0.84;74.63;99913.47;5108237;28;20143;-70
2022/01/25 02:44:42;;;;;;;53.10;23.10;;;;;;;-0.82;74.84;99906.91;5107670;28;20068;-70
2022/01/25 02:49:52;;;;;;;49.50;22.38;;;;;;;-0.81;74.85;99903.16;5108434;28;20034;-70
2022/01/25 02:52:18;;;;;;;51.97;23.73;;;;;;;-0.80;74.67;99906.69;5108363;28;20501;-71
2022/01/25 02:54:45;;;;;;;55.28;23.88;;;;;;;-0.82;75.07;99909.59;5087918;28;20015;-69
2022/01/25 02:57:11;;;;;;;53.83;23.52;;;;;;;-0.84;74.84;99913.47;5108188;28;20020;-70
2022/01/25 02:59:36;;;;;;;56.40;24.20;;;;;;;-0.86;75.36;99902.03;5108271;28;20391;-70
2022/01/25 03:02:02;;;;;;;49.97;23.60;;;;;;;-0.85;75.22;99893.78;5108222;28;20028;-70
2022/01/25 03:04:29;;;;;;;49.97;24.05;;;;;;;-0.85;75.34;99903.72;5088494;28;20024;-70
2022/01/25 03:06:54;;;;;;;49.25;23.27;;;;;;;-0.86;74.83;99899.34;5106296;28;20059;-71
2022/01/25 03:09:20;;;;;;;49.70;22.40;;;;;;;-0.86;75.39;99896.66;5088066;28;20479;-71
2022/01/25 03:11:48;;;;;;;49.95;22.45;;;;;;;-0.87;75.08;99895.00;5089241;28;20030;-70
2022/01/25 03:14:14;;;;;;;48.67;23.13;;;;;;;-0.88;75.17;99886.09;5103984;28;20028;-71
2022/01/25 03:16:48;;;;;;;50.65;23.20;;;;;;;-0.87;75.22;99889.59;5106253;28;20023;-71
2022/01/25 03:22:13;;;;;;;56.55;23.77;;;;;;;-0.90;75.08;99891.66;5107153;28;20118;-70
2022/01/25 03:24:39;;;;;;;54.28;24.25;;;;;;;-0.90;75.22;99888.13;5107731;28;20023;-70
2022/01/25 03:27:04;;;;;;;47.58;22.02;;;;;;;-0.86;75.26;99889.44;5111832;27;20040;-70
2022/01/25 03:29:29;;;;;;;45.97;20.58;;;;;;;-0.84;75.15;99891.94;5112561;28;20120;-69
2022/01/25 03:31:55;;;;;;;52.72;22.83;;;;;;;-0.85;75.06;99890.25;5112615;28;20106;-70
2022/01/25 03:34:20;;;;;;;49.58;22.80;;;;;;;-0.91;75.43;99894.53;5112071;28;20026;-69
2022/01/25 03:36:46;;;;;;;55.90;24.58;;;;;;;-0.93;75.34;99893.88;5112412;28;20567;-71
2022/01/25 03:39:13;;;;;;;51.10;23.80;;;;;;;-0.94;75.19;99895.72;5112610;28;20051;-70
2022/01/25 03:41:38;;;;;;;53.67;23.27;;;;;;;-0.93;75.50;99897.41;5112769;28;20031;-71
2022/01/25 03:44:04;;;;;;;49.72;23.48;;;;;;;-0.94;75.19;99894.91;5091009;28;20131;-70
2022/01/25 03:46:55;;;;;;;90.50;34.42;;;;;;;-0.96;75.48;99887.00;5093438;28;20081;-70
2022/01/25 03:52:08;;;;;;;169.77;81.95;;;;;;;-1.07;76.53;99882.91;5111465;28;20077;-70
2022/01/25 03:54:34;;;;;;;632.65;304.70;;;;;;;-1.11;76.61;99889.69;5111952;28;20027;-71
2022/01/25 03:56:59;;;;;;;486.83;183.15;;;;;;;-1.10;76.37;99888.66;5093411;28;20128;-70
2022/01/25 03:59:25;;;;;;;156.30;51.38;;;;;;;-1.09;76.49;99884.94;5093566;28;20020;-70
2022/01/25 04:01:50;;;;;;;95.97;33.40;;;;;;;-1.13;76.91;99878.25;5091311;28;20019;-71
2022/01/25 04:04:20;;;;;;;106.57;35.40;;;;;;;-1.15;76.63;99877.59;5110082;28;20108;-70
2022/01/25 04:06:49;;;;;;;145.88;38.30;;;;;;;-1.17;77.00;99870.75;5090667;28;20032;-70
2022/01/25 04:09:15;;;;;;;171.63;43.40;;;;;;;-1.18;77.09;99869.91;5107693;28;20039;-70
2022/01/25 04:11:40;;;;;;;145.00;43.00;;;;;;;-1.18;77.28;99864.50;5110169;28;20019;-70
2022/01/25 04:14:06;;;;;;;106.65;33.97;;;;;;;-1.17;77.19;99868.06;5107136;28;20468;-71
2022/01/25 04:16:36;;;;;;;182.43;48.10;;;;;;;-1.20;77.67;99875.47;5110658;28;20127;-70
2022/01/25 04:19:10;;;;;;;296.42;75.85;;;;;;;-1.25;77.52;99864.41;5111424;28;20031;-70
2022/01/25 04:26:51;;;;;;;111.57;35.03;;;;;;;-1.35;78.02;99869.22;5110361;28;20062;-71
2022/01/25 04:29:17;;;;;;;110.78;33.28;;;;;;;-1.39;78.41;99862.53;5111838;28;20077;-70
2022/01/25 04:31:43;;;;;;;122.20;43.70;;;;;;;-1.43;78.47;99861.25;5111492;28;20024;-70
2022/01/25 04:34:13;;;;;;;71.97;28.80;;;;;;;-1.45;78.46;99863.28;5111350;28;20027;-70
2022/01/25 04:50:00;;;;;;;109.32;38.42;;;;;;;-1.45;79.73;99844.47;5112738;28;20051;-69
2022/01/25 04:52:31;;;;;;;93.70;32.85;;;;;;;-1.44;79.11;99846.13;5112049;28;20028;-70
2022/01/25 04:57:42;;;;;;;89.93;35.30;;;;;;;-1.46;80.07;99851.69;5111810;28;20058;-69
2022/01/25 05:00:18;;;;;;;91.90;38.90;;;;;;;-1.44;79.74;99846.13;5112509;28;20066;-70
2022/01/25 05:05:29;;;;;;;113.15;38.00;;;;;;;-1.51;80.39;99851.38;5108089;28;20088;-70
2022/01/25 05:10:20;;;;;;;87.63;35.67;;;;;;;-1.53;80.89;99839.97;5112167;28;20039;-70
2022/01/25 05:15:25;;;;;;;98.78;39.35;;;;;;;-1.57;81.57;99838.66;5111187;28;20065;-71
2022/01/25 05:18:12;;;;;;;107.25;41.35;;;;;;;-1.57;81.37;99839.50;5093695;28;20035;-71
2022/01/25 05:23:38;;;;;;;88.18;35.20;;;;;;;-1.52;81.04;99839.81;5048551;28;20108;-70
2022/01/25 05:26:04;;;;;;;81.20;34.17;;;;;;;-1.51;81.57;99836.09;5098408;28;20463;-70
2022/01/25 05:28:29;;;;;;;96.72;39.05;;;;;;;-1.53;81.38;99839.97;5111508;28;20065;-70
2022/01/25 05:30:54;;;;;;;113.93;43.63;;;;;;;-1.55;81.59;99836.63;5111899;28;20024;-70
2022/01/25 05:33:20;;;;;;;86.22;32.40;;;;;;;-1.56;81.89;99835.81;5111428;28;20107;-70
2022/01/25 05:35:45;;;;;;;97.38;39.92;;;;;;;-1.56;82.46;99834.97;5075676;28;20031;-70
2022/01/25 05:38:11;;;;;;;84.25;35.80;;;;;;;-1.59;82.10;99844.25;5111184;28;20035;-70
2022/01/25 05:40:45;;;;;;;82.70;33.42;;;;;;;-1.57;81.76;99838.66;5108951;28;20066;-70
2022/01/25 05:48:20;;;;;;;92.65;38.63;;;;;;;-1.55;82.33;99826.72;5108597;28;20499;-69
2022/01/25 05:50:45;;;;;;;92.25;38.28;;;;;;;-1.54;81.87;99819.47;5091193;28;20033;-70
2022/01/25 05:53:10;;;;;;;89.20;38.20;;;;;;;-1.53;82.08;99824.69;5109828;28;20031;-70
2022/01/25 05:55:36;;;;;;;83.55;34.60;;;;;;;-1.53;82.07;99821.13;5090069;28;20065;-70
2022/01/25 05:58:01;;;;;;;96.72;42.45;;;;;;;-1.52;81.93;99825.50;5111308;28;20038;-70
2022/01/25 06:00:27;;;;;;;100.32;41.33;;;;;;;-1.51;82.45;99825.34;5092754;28;20109;-70
2022/01/25 06:02:55;;;;;;;102.20;40.78;;;;;;;-1.51;82.52;99827.16;5111497;28;20028;-70
2022/01/25 06:05:20;;;;;;;100.22;43.33;;;;;;;-1.51;82.31;99819.09;5110797;28;20034;-70
2022/01/25 06:07:45;;;;;;;79.90;36.38;;;;;;;-1.50;82.40;99810.84;5110436;28;20027;-70
2022/01/25 06:10:11;;;;;;;79.85;33.50;;;;;;;-1.48;82.21;99807.97;5110073;28;20023;-70
2022/01/25 06:12:36;;;;;;;83.97;35.00;;;;;;;-1.45;82.43;99804.09;5110758;28;20529;-70
2022/01/25 06:15:03;;;;;;;89.93;37.17;;;;;;;-1.44;82.35;99811.97;5107508;28;20035;-70
2022/01/25 06:17:28;;;;;;;90.10;36.53;;;;;;;-1.43;82.62;99813.63;5110579;28;20043;-70
2022/01/25 06:19:54;;;;;;;95.47;38.90;;;;;;;-1.42;82.77;99815.31;5107935;28;20084;-70
2022/01/25 06:22:19;;;;;;;84.95;36.75;;;;;;;-1.41;82.35;99816.13;5110722;28;20024;-70
2022/01/25 06:24:45;;;;;;;85.45;37.00;;;;;;;-1.40;82.69;99799.81;5110725;28;20019;-70
2022/01/25 06:27:10;;;;;;;92.03;37.83;;;;;;;-1.38;82.28;99807.69;5109425;28;20019;-70
2022/01/25 06:29:36;;;;;;;86.03;37.05;;;;;;;-1.39;82.29;99801.50;5110742;28;20031;-70
2022/01/25 06:32:02;;;;;;;89.30;37.63;;;;;;;-1.39;82.31;99796.09;5111056;28;20398;-70
2022/01/25 06:34:27;;;;;;;87.40;35.53;;;;;;;-1.35;82.85;99799.25;5090763;28;20070;-69
2022/01/25 06:36:52;;;;;;;96.00;36.85;;;;;;;-1.35;82.39;99794.72;5110260;28;20523;-69
2022/01/25 06:39:18;;;;;;;88.50;37.55;;;;;;;-1.29;82.09;99789.63;5109766;28;20032;-70
2022/01/25 06:41:44;;;;;;;97.22;36.75;;;;;;;-1.27;82.10;99791.09;5107000;28;20149;-69
2022/01/25 06:44:09;;;;;;;96.22;37.13;;;;;;;-1.27;82.16;99791.09;5109789;28;20039;-69
2022/01/25 06:46:34;;;;;;;92.55;36.92;;;;;;;-1.26;82.22;99783.88;5110360;28;20123;-70
2022/01/25 06:49:00;;;;;;;100.40;39.38;;;;;;;-1.25;82.43;99777.47;5109902;28;20035;-70
2022/01/25 06:51:28;;;;;;;93.82;41.60;;;;;;;-1.25;82.44;99780.97;5110652;28;20038;-69
2022/01/25 06:53:54;;;;;;;95.70;40.15;;;;;;;-1.23;81.93;99789.69;5109431;28;20080;-70
2022/01/25 06:56:19;;;;;;;101.90;41.78;;;;;;;-1.22;82.13;99794.06;5110857;28;20031;-70
2022/01/25 06:58:45;;;;;;;105.95;42.95;;;;;;;-1.20;82.47;99786.63;5090633;28;20436;-69
2022/01/25 07:01:10;;;;;;;108.30;45.33;;;;;;;-1.16;82.13;99787.09;5113886;27;20080;-70
2022/01/25 07:03:35;;;;;;;135.45;54.55;;;;;;;-1.13;82.54;99793.97;5112415;28;20031;-69
2022/01/25 07:06:01;;;;;;;126.47;47.83;;;;;;;-1.11;82.44;99794.63;5113552;28;20042;-69
2022/01/25 07:08:27;;;;;;;130.98;47.75;;;;;;;-1.10;82.45;99793.59;5114593;28;20058;-69
2022/01/25 07:10:54;;;;;;;131.05;49.42;;;;;;;-1.10;82.49;99786.34;5113694;28;20055;-70
2022/01/25 07:13:19;;;;;;;99.85;39.40;;;;;;;-1.06;82.45;99784.13;5113174;28;20035;-69
2022/01/25 07:15:45;;;;;;;128.82;47.72;;;;;;;-1.05;82.17;99785.81;5112760;28;20024;-69
2022/01/25 07:18:10;;;;;;;132.18;48.53;;;;;;;-1.06;82.48;99789.50;5095276;28;20015;-69
2022/01/25 07:20:36;;;;;;;121.03;44.72;;;;;;;-1.05;82.49;99785.81;5112252;28;20035;-69
2022/01/25 07:23:01;;;;;;;123.55;45.65;;;;;;;-1.06;82.39;99787.66;5116524;27;20028;-70
2022/01/25 07:25:27;;;;;;;167.50;55.85;;;;;;;-1.04;82.60;99784.78;5114223;27;20031;-69
2022/01/25 07:27:53;;;;;;;167.80;60.60;;;;;;;-1.00;82.72;99774.44;5095201;28;20398;-69
2022/01/25 07:30:18;;;;;;;112.35;45.72;;;;;;;-0.98;82.35;99772.41;5111886;27;20467;-68
2022/01/25 07:32:44;;;;;;;108.25;42.67;;;;;;;-0.96;82.70;99773.88;5112785;28;20448;-69
2022/01/25 07:35:10;;;;;;;95.20;39.15;;;;;;;-0.95;82.45;99775.56;5093996;27;20114;-68
2022/01/25 07:37:36;;;;;;;98.55;39.33;;;;;;;-0.92;82.90;99777.06;5092776;28;20485;-69
2022/01/25 07:40:03;;;;;;;102.22;40.03;;;;;;;-0.88;83.06;99777.50;5114709;27;20035;-71
2022/01/25 07:42:30;;;;;;;103.63;41.97;;;;;;;-0.82;82.64;99774.06;5111737;27;20522;-69
2022/01/25 07:44:56;;;;;;;102.07;42.33;;;;;;;-0.77;82.93;99768.94;5091499;28;20055;-68
2022/01/25 07:47:21;;;;;;;93.70;38.67;;;;;;;-0.75;82.62;99773.09;5108799;28;20116;-70
2022/01/25 07:49:47;;;;;;;93.03;39.47;;;;;;;-0.73;82.94;99775.63;5106082;28;20494;-69
2022/01/25 07:52:12;;;;;;;103.50;41.15;;;;;;;-0.67;82.82;99776.69;5113244;27;20730;-69
2022/01/25 07:54:38;;;;;;;99.07;40.83;;;;;;;-0.64;81.99;99771.78;5112322;27;20106;-72
2022/01/25 07:57:04;;;;;;;90.70;40.88;;;;;;;-0.60;82.52;99766.84;5112648;28;20027;-73
2022/01/25 07:59:29;;;;;;;96.22;40.28;;;;;;;-0.54;82.74;99771.47;5112621;28;20028;-71
2022/01/25 08:01:54;;;;;;;102.95;40.38;;;;;;;-0.51;82.29;99767.53;5112711;27;20016;-70
2022/01/25 08:04:20;;;;;;;99.25;38.30;;;;;;;-0.53;82.81;99773.13;5097096;27;20104;-69
2022/01/25 08:06:46;;;;;;;102.32;39.47;;;;;;;-0.54;82.62;99771.47;5111884;27;20027;-68
2022/01/25 08:09:11;;;;;;;101.53;38.45;;;;;;;-0.51;83.05;99773.78;5091767;28;20028;-69
2022/01/25 08:11:37;;;;;;;95.05;36.47;;;;;;;-0.50;82.66;99774.59;5111683;28;20027;-69
2022/01/25 08:14:16;;;;;;;82.88;35.40;;;;;;;-0.48;82.36;99762.63;5109250;27;20745;-69
2022/01/25 08:16:48;;;;;;;101.67;38.03;;;;;;;-0.43;82.56;99761.22;5107146;28;20505;-70
2022/01/25 08:19:14;;;;;;;105.10;40.85;;;;;;;-0.44;82.60;99760.38;5114411;27;20027;-71
2022/01/25 08:21:41;;;;;;;97.57;38.65;;;;;;;-0.42;82.34;99773.66;5093178;28;20418;-69
2022/01/25 08:24:11;;;;;;;95.00;38.22;;;;;;;-0.39;82.62;99771.41;5110649;28;20435;-70
2022/01/25 08:26:37;;;;;;;;;;;;;;;-0.34;82.52;99778.91;5109151;27;20024;-68
2022/01/25 08:29:04;;;;;;;103.47;38.45;;;;;;;-0.33;82.65;99781.44;5110882;27;20330;-69
2022/01/25 08:31:30;;;;;;;101.38;39.45;;;;;;;-0.29;82.42;99786.44;5093388;28;20032;-69
2022/01/25 08:33:55;;;;;;;114.32;44.97;;;;;;;-0.28;82.35;99780.03;5112664;27;20036;-68
2022/01/25 08:36:21;;;;;;;103.57;40.05;;;;;;;-0.25;82.60;99766.16;5112613;27;20039;-69
2022/01/25 08:38:46;;;;;;;109.60;42.92;;;;;;;-0.23;82.53;99770.31;5110036;27;20027;-72
2022/01/25 08:41:12;;;;;;;101.40;39.75;;;;;;;-0.22;82.65;99766.59;5110575;28;20024;-73
2022/01/25 08:43:38;;;;;;;100.82;40.35;;;;;;;-0.18;82.38;99769.72;5111242;27;20552;-72
2022/01/25 08:46:03;;;;;;;102.05;40.15;;;;;;;-0.12;82.57;99770.84;5112741;27;20046;-68
2022/01/25 08:48:29;;;;;;;95.45;37.92;;;;;;;-0.05;82.88;99777.13;5111086;28;20031;-70
2022/01/25 08:50:54;;;;;;;96.72;38.70;;;;;;;-0.01;82.51;99773.84;5111791;27;20031;-69
2022/01/25 08:53:20;;;;;;;101.38;39.55;;;;;;;0.02;82.46;99764.50;5110035;28;20454;-70
2022/01/25 08:55:46;;;;;;;106.85;43.63;;;;;;;0.07;82.47;99762.06;5110848;28;20062;-71
2022/01/25 08:58:11;;;;;;;125.45;47.00;;;;;;;0.12;82.58;99762.31;5091350;28;20501;-70
2022/01/25 09:00:37;;;;;;;100.07;40.65;;;;;;;0.14;82.40;99771.03;5091886;28;20127;-70
2022/01/25 09:03:03;;;;;;;104.03;43.42;;;;;;;0.14;82.51;99775.63;5108023;28;20027;-70
2022/01/25 09:05:29;;;;;;;117.10;45.30;;;;;;;0.16;82.27;99765.47;5109008;28;20040;-67
2022/01/25 09:07:57;;;;;;;124.15;45.28;;;;;;;0.19;82.24;99767.78;5106711;27;20061;-67
2022/01/25 09:10:22;;;;;;;127.20;45.53;;;;;;;0.21;81.69;99768.38;5108190;28;20024;-67
2022/01/25 09:12:48;;;;;;;114.75;43.10;;;;;;;0.23;82.04;99768.22;5111131;27;20034;-68
2022/01/25 09:15:13;;;;;;;149.00;53.90;;;;;;;0.27;81.75;99769.50;5110221;28;20030;-69
2022/01/25 09:17:39;;;;;;;173.73;59.22;;;;;;;0.28;82.08;99763.88;5108748;28;20035;-70
2022/01/25 09:20:05;;;;;;;106.80;41.60;;;;;;;0.29;82.05;99768.25;5110062;28;20030;-68
2022/01/25 09:22:30;;;;;;;104.50;41.72;;;;;;;0.26;81.54;99773.22;5109360;27;20106;-69
2022/01/25 09:24:56;;;;;;;105.30;40.95;;;;;;;0.25;82.06;99766.16;5110321;27;20387;-69
2022/01/25 09:27:21;;;;;;;108.65;43.42;;;;;;;0.28;81.52;99760.38;5108252;28;20035;-69
2022/01/25 09:29:47;;;;;;;109.22;41.35;;;;;;;0.33;82.06;99766.00;5110100;28;20035;-68
2022/01/25 09:32:13;;;;;;;120.93;48.47;;;;;;;0.36;81.69;99764.75;5110012;27;20368;-69
2022/01/25 09:34:38;;;;;;;147.85;51.53;;;;;;;0.39;81.74;99757.13;5091666;28;20074;-68
2022/01/25 09:37:04;;;;;;;121.45;44.90;;;;;;;0.43;81.92;99763.78;5088307;28;20043;-69
2022/01/25 09:39:29;;;;;;;113.72;42.90;;;;;;;0.50;82.01;99758.44;5108493;28;20552;-72
2022/01/25 09:41:55;;;;;;;109.40;42.08;;;;;;;0.57;82.06;99753.06;5109976;28;20524;-68
2022/01/25 09:44:21;;;;;;;101.45;41.13;;;;;;;0.60;81.97;99763.47;5109083;28;20573;-70
2022/01/25 09:46:46;;;;;;;112.25;45.17;;;;;;;0.62;82.07;99760.56;5108834;27;20399;-69
2022/01/25 09:49:12;;;;;;;114.88;43.65;;;;;;;0.69;81.55;99761.44;5108995;28;20463;-69
2022/01/25 09:51:43;;;;;;;99.25;41.05;;;;;;;0.73;81.77;99762.72;5109473;28;20035;-69
2022/01/25 09:54:09;;;;;;;103.70;42.53;;;;;;;0.80;81.46;99760.06;5109593;28;20023;-70
2022/01/25 09:56:34;;;;;;;114.75;45.55;;;;;;;0.93;81.37;99770.09;5090050;28;20081;-69
2022/01/25 09:59:00;;;;;;;93.45;38.25;;;;;;;1.01;81.37;99759.13;5108560;28;20414;-68
2022/01/25 10:01:28;;;;;;;107.68;43.80;;;;;;;1.07;81.43;99763.69;5089997;28;20024;-67
2022/01/25 10:03:54;;;;;;;115.80;44.03;;;;;;;1.10;81.49;99747.06;5108935;28;20024;-68
2022/01/25 10:06:22;;;;;;;108.22;41.40;;;;;;;1.10;80.89;99748.97;5091501;28;20073;-68
2022/01/25 10:08:52;;;;;;;99.60;41.55;;;;;;;1.03;81.00;99747.06;5109953;27;20483;-68
2022/01/25 10:11:21;;;;;;;107.13;41.78;;;;;;;1.01;81.42;99748.31;5089039;28;20023;-68
2022/01/25 10:13:50;;;;;;;109.10;43.88;;;;;;;0.97;81.32;99750.56;5108452;27;20049;-69
2022/01/25 10:16:19;;;;;;;112.15;43.83;;;;;;;0.95;81.52;99747.22;5110905;27;20048;-70
2022/01/25 10:18:56;;;;;;;112.22;44.92;;;;;;;0.94;81.63;99739.34;5108588;28;20406;-68
2022/01/25 10:21:35;;;;;;;101.68;38.00;;;;;;;0.92;80.84;99728.72;5090878;28;20434;-68
2022/01/25 10:24:01;;;;;;;104.33;43.13;;;;;;;0.93;81.57;99737.69;5109023;28;20031;-69
2022/01/25 10:26:29;;;;;;;88.75;35.17;;;;;;;1.00;81.41;99736.66;5088846;28;20950;-72
2022/01/25 10:28:55;;;;;;;93.93;38.75;;;;;;;0.99;81.65;99734.16;5107590;27;20042;-70
2022/01/25 10:31:20;;;;;;;87.40;37.83;;;;;;;0.97;81.97;99725.44;5109517;28;20111;-65
2022/01/25 10:33:53;;;;;;;83.95;34.50;;;;;;;0.95;81.65;99731.03;5088855;28;20032;-69
2022/01/25 10:36:22;;;;;;;72.13;32.45;;;;;;;0.96;81.90;99734.56;5109613;28;20032;-68
2022/01/25 10:38:50;;;;;;;91.07;35.10;;;;;;;0.91;81.34;99721.66;5107363;28;20418;-68
2022/01/25 10:41:18;;;;;;;76.63;31.98;;;;;;;0.91;81.79;99718.13;5109489;28;20019;-68
2022/01/25 10:43:46;;;;;;;95.72;39.30;;;;;;;0.91;82.02;99715.44;5107998;28;20055;-70
2022/01/25 10:46:26;;;;;;;85.70;35.05;;;;;;;0.88;82.30;99708.53;5107832;28;20027;-68
2022/01/25 10:49:13;;;;;;;78.05;33.42;;;;;;;0.88;81.76;99706.69;5108343;28;20019;-70
2022/01/25 10:51:48;;;;;;;81.80;33.08;;;;;;;0.85;82.04;99709.78;5104471;28;20028;-69
2022/01/25 10:54:16;;;;;;;74.40;31.75;;;;;;;0.79;81.95;99707.91;5086895;28;20027;-69
2022/01/25 10:56:44;;;;;;;86.75;35.17;;;;;;;0.77;82.17;99711.84;5108713;28;20028;-67
2022/01/25 10:59:14;;;;;;;78.40;32.95;;;;;;;0.74;81.89;99696.88;5106142;28;20069;-68
2022/01/25 11:01:47;;;;;;;79.13;34.63;;;;;;;0.73;81.59;99690.63;5110420;28;20023;-70
2022/01/25 11:04:14;;;;;;;83.60;34.47;;;;;;;0.74;82.45;99694.16;5088678;28;20024;-69
2022/01/25 11:06:41;;;;;;;75.53;32.90;;;;;;;0.78;82.38;99694.59;5107150;28;20033;-69
2022/01/25 11:09:10;;;;;;;83.22;35.90;;;;;;;0.78;82.37;99695.44;5109022;28;21679;-69
2022/01/25 11:11:52;;;;;;;79.72;32.80;;;;;;;0.84;82.31;99689.22;5107790;28;20023;-69
2022/01/25 11:17:02;;;;;;;122.40;44.90;;;;;;;1.04;82.78;99691.13;5109212;28;20047;-68
2022/01/25 11:19:29;;;;;;;124.00;41.95;;;;;;;1.15;82.21;99689.75;5110955;28;20472;-69
2022/01/25 11:21:56;;;;;;;134.73;42.55;;;;;;;1.21;82.37;99693.50;5110573;28;20145;-69
2022/01/25 11:24:24;;;;;;;74.78;28.02;;;;;;;1.32;82.72;99692.91;5087876;28;20034;-68
2022/01/25 11:26:52;;;;;;;66.85;26.88;;;;;;;1.39;82.27;99677.53;5106649;28;20129;-68
2022/01/25 11:29:18;;;;;;;71.40;30.17;;;;;;;1.36;81.50;99675.22;5108927;28;20475;-68
2022/01/25 11:32:08;;;;;;;102.22;47.08;;;;;;;1.41;82.04;99675.44;5107580;28;20015;-68
2022/01/25 11:34:36;;;;;;;83.65;33.13;;;;;;;1.48;82.08;99681.66;5107904;28;20478;-68
2022/01/25 11:37:07;;;;;;;81.15;30.33;;;;;;;1.49;82.05;99669.00;5108420;28;20027;-69
2022/01/25 11:39:35;;;;;;;98.00;34.00;;;;;;;1.48;81.51;99670.84;5107936;28;20024;-68
2022/01/25 11:42:05;;;;;;;86.13;31.70;;;;;;;1.55;81.77;99660.06;5088990;28;20032;-69
2022/01/25 11:44:31;;;;;;;89.68;31.58;;;;;;;1.60;81.87;99659.44;5089317;28;20047;-69
2022/01/25 11:47:06;;;;;;;84.82;32.92;;;;;;;1.65;81.24;99659.66;5091717;28;20109;-69
2022/01/25 11:49:32;;;;;;;79.97;31.05;;;;;;;1.73;82.07;99655.88;5078169;28;20036;-69
2022/01/25 11:52:14;;;;;;;73.68;28.50;;;;;;;1.81;81.55;99658.38;5112381;28;20415;-68
2022/01/25 11:54:44;;;;;;;79.43;31.75;;;;;;;1.87;81.74;99667.53;5112853;28;20049;-69
2022/01/25 11:57:15;;;;;;;;;;;;;;;1.91;81.83;99672.34;5112747;27;20030;-69
2022/01/25 11:59:42;;;;;;;63.30;24.42;;;;;;;1.84;81.17;99660.69;5112872;28;19924;-70
2022/01/25 12:02:07;;;;;;;66.93;28.33;;;;;;;1.71;80.70;99658.81;5112303;28;21482;-70
2022/01/25 12:04:34;;;;;;;71.40;31.13;;;;;;;1.71;81.21;99647.16;5094161;28;20031;-70
2022/01/25 12:07:01;;;;;;;64.40;28.60;;;;;;;1.76;81.67;99653.63;5094117;28;20047;-70
2022/01/25 12:09:45;;;;;;;67.97;28.02;;;;;;;1.74;80.64;99654.84;5094659;28;20114;-70
2022/01/25 12:12:13;;;;;;;64.63;25.90;;;;;;;1.78;80.93;99653.41;5112329;28;20038;-70
2022/01/25 12:14:50;;;;;;;59.47;26.55;;;;;;;1.73;80.80;99647.78;5112648;28;20056;-69
2022/01/25 12:17:17;;;;;;;72.32;31.30;;;;;;;1.71;80.45;99645.28;5112923;28;20030;-70
2022/01/25 12:19:48;;;;;;;57.40;24.50;;;;;;;1.70;80.98;99643.63;5112993;28;20027;-70
2022/01/25 12:25:15;;;;;;;75.93;30.77;;;;;;;1.70;81.33;99649.03;5112835;28;20035;-70
2022/01/25 12:28:10;;;;;;;58.63;24.80;;;;;;;1.82;80.69;99645.72;5112238;28;20031;-70
2022/01/25 12:30:44;;;;;;;74.60;29.95;;;;;;;1.92;81.39;99646.09;5112776;28;20395;-69
2022/01/25 12:33:24;;;;;;;84.60;34.70;;;;;;;1.91;80.73;99649.84;5109687;27;20047;-72
2022/01/25 12:35:54;;;;;;;;;;;;;;;1.87;81.12;99644.03;5112004;28;20483;-72
2022/01/25 12:38:24;;;;;;;83.35;35.90;;;;;;;1.89;80.86;99641.09;5111459;28;20403;-72
2022/01/25 12:41:15;;;;;;;70.00;34.03;;;;;;;1.81;80.55;99644.88;5112180;27;20699;-72
2022/01/25 12:43:53;;;;;;;62.40;29.85;;;;;;;1.87;80.61;99646.72;5088468;28;20534;-71
2022/01/25 12:46:25;;;;;;;52.30;24.77;;;;;;;1.86;80.16;99639.66;5109988;28;20058;-70
2022/01/25 12:48:56;;;;;;;52.35;22.98;;;;;;;1.84;80.62;99640.88;5092377;28;20057;-69
2022/01/25 12:51:31;;;;;;;43.28;19.55;;;;;;;1.79;80.99;99636.13;5110931;28;20019;-69
2022/01/25 12:53:59;;;;;;;44.28;19.83;;;;;;;1.78;80.27;99640.72;5110764;28;20487;-73
2022/01/25 12:56:34;;;;;;;49.60;21.92;;;;;;;1.76;80.22;99625.72;5109099;27;20050;-70
2022/01/25 12:59:06;;;;;;;40.97;18.77;;;;;;;1.82;80.51;99626.78;5109683;28;20058;-70
2022/01/25 13:01:34;;;;;;;49.17;22.05;;;;;;;1.76;80.35;99623.88;5110556;27;20490;-70
2022/01/25 13:04:01;;;;;;;57.17;24.92;;;;;;;1.83;80.24;99625.72;5110096;28;20086;-71
2022/01/25 13:06:36;;;;;;;51.33;21.50;;;;;;;1.88;80.45;99617.78;5110888;28;20081;-71
2022/01/25 13:17:03;;;;;;;39.75;16.75;;;;;;;1.77;80.52;99620.13;5110519;28;20031;-71
2022/01/25 13:19:37;;;;;;;39.55;17.58;;;;;;;1.82;80.03;99624.06;5092343;28;20034;-71
2022/01/25 13:22:14;;;;;;;35.67;16.60;;;;;;;1.85;80.46;99621.75;5110373;27;20107;-71
2022/01/25 13:24:55;;;;;;;40.67;18.73;;;;;;;1.83;80.55;99618.44;5107972;27;20035;-72
2022/01/25 13:27:21;;;;;;;42.20;17.15;;;;;;;1.76;80.34;99621.16;5111366;27;20055;-70